»·PEaware :: AIJ314 MMMX-KLAX

AIJ314 :: MMMX-KLAX

FLIGHT INFORMATION

Flight Status: Arrived
Operator: Interjet
More flights by this operator :: More flights under this callsign
Pilot: Isaac R. (8401)
Aircraft: AIRBUS A320
(A320)
More flights by this aircraft type
Origin: MMMX Lic Benito Juarez Intl
Mexico
Destination: KLAX Los Angeles Intl
United States
More flights between these airports :: More routes between these airports
Route: +PTJ5A PTJ UJ45QET UJ5 ZCL UT10 PPE J93 JLI VISTA2
File this flight plan on PilotEdge
Remarks:
Altitude:
(Current/Filed)
38,000ft
Speed:
(Current/Filed)
500kts
Departed: 19-Mar-16 04:53 PM
Arrived: 19-Mar-16 06:07 PM
Distance/Time
Traveled:
1349nm/1:14
Distance/Time
To Go:
Arrived

Flight Plot

Page will automatically refresh every two minutes.

Flight plan parsing failed; only flown route is shown


Map Options




Map Legend


Flown Route
Filed Route
Departure Airport
Arrival Airport
Navaid (VOR, NDB)
Fix

Horizontal Profiles

Position Reports

Time Latitude Longitude Heading Altitude Ground
Speed
19-Mar-16 16:44 30.260326 -111.783906 307 37973ft 389kts
19-Mar-16 16:45 30.328681 -111.891112 307 37976ft 389kts
19-Mar-16 16:46 30.397040 -111.998643 307 38025ft 387kts
19-Mar-16 16:47 30.454364 -112.089486 308 38029ft 393kts
19-Mar-16 16:48 30.523389 -112.198176 308 38031ft 393kts
19-Mar-16 16:50 30.590523 -112.304470 308 38032ft 392kts
19-Mar-16 16:50 30.646389 -112.393163 307 38033ft 391kts
19-Mar-16 16:51 30.712616 -112.498627 307 38033ft 390kts
19-Mar-16 16:52 30.777178 -112.601695 307 38033ft 389kts
19-Mar-16 16:53 30.843635 -112.708092 307 38029ft 389kts
19-Mar-16 16:54 30.899072 -112.797135 307 38025ft 388kts
19-Mar-16 16:55 30.963247 -112.900314 307 38023ft 387kts
19-Mar-16 16:56 31.029348 -113.006976 307 37994ft 386kts
19-Mar-16 16:57 31.092670 -113.109444 307 37972ft 386kts
19-Mar-16 16:58 31.155486 -113.211280 307 37958ft 386kts
19-Mar-16 16:59 31.218191 -113.313194 307 37935ft 385kts
19-Mar-16 17:00 31.282400 -113.417902 306 37932ft 385kts
19-Mar-16 17:01 31.346441 -113.522612 306 37932ft 384kts
19-Mar-16 17:02 31.408611 -113.624487 306 37932ft 384kts
19-Mar-16 17:03 31.470641 -113.726455 306 37945ft 383kts
19-Mar-16 17:04 31.532581 -113.828506 306 37946ft 383kts
19-Mar-16 17:05 31.594388 -113.930660 306 37944ft 383kts
19-Mar-16 17:07 31.656168 -114.032914 306 37941ft 384kts
19-Mar-16 17:07 31.707478 -114.118121 306 37939ft 384kts
19-Mar-16 17:08 31.771206 -114.224226 306 37938ft 384kts
19-Mar-16 17:09 31.845983 -114.310025 329 37937ft 385kts
19-Mar-16 17:10 31.904930 -114.417672 302 37934ft 385kts
19-Mar-16 17:11 31.964989 -114.524465 305 37933ft 384kts
19-Mar-16 17:12 32.026053 -114.629912 305 37932ft 381kts
19-Mar-16 17:13 32.086271 -114.733109 305 37930ft 381kts
19-Mar-16 17:14 32.146445 -114.836339 305 37930ft 381kts
19-Mar-16 17:15 32.208528 -114.943050 305 37929ft 381kts
19-Mar-16 17:16 32.268501 -115.046400 305 37929ft 380kts
19-Mar-16 17:17 32.320209 -115.135738 304 37929ft 380kts
19-Mar-16 17:18 32.381968 -115.242699 304 37928ft 380kts
19-Mar-16 17:19 32.441628 -115.346306 304 37926ft 380kts
19-Mar-16 17:20 32.503152 -115.453471 304 37924ft 380kts
19-Mar-16 17:21 32.562359 -115.556897 304 37920ft 379kts
19-Mar-16 17:22 32.623467 -115.664024 304 37918ft 379kts
19-Mar-16 17:23 32.674524 -115.753693 303 37934ft 379kts
19-Mar-16 17:24 32.733949 -115.858278 303 37937ft 379kts
19-Mar-16 17:25 32.796168 -115.968185 303 37947ft 379kts
19-Mar-16 17:26 32.857564 -116.076650 303 37962ft 386kts
19-Mar-16 17:27 32.909411 -116.168793 303 37977ft 386kts
19-Mar-16 17:28 32.971012 -116.278477 302 38001ft 385kts
19-Mar-16 17:29 33.031635 -116.386849 302 38007ft 385kts
19-Mar-16 17:30 33.094994 -116.500341 302 37999ft 385kts
19-Mar-16 17:31 33.146147 -116.592192 302 38032ft 384kts
19-Mar-16 17:32 33.201807 -116.707737 296 38046ft 384kts
19-Mar-16 17:33 33.253690 -116.827009 297 35158ft 391kts
19-Mar-16 17:35 33.306922 -116.948513 297 29328ft 390kts
19-Mar-16 17:35 33.349782 -117.046184 297 26351ft 351kts
19-Mar-16 17:36 33.400173 -117.164030 287 24645ft 363kts
19-Mar-16 17:37 33.364628 -117.258508 222 23704ft 373kts
19-Mar-16 17:38 33.287954 -117.348793 228 21659ft 357kts
19-Mar-16 17:39 33.238776 -117.436601 268 19880ft 341kts
19-Mar-16 17:40 33.248721 -117.555308 273 17909ft 333kts
19-Mar-16 17:41 33.254230 -117.650359 273 16412ft 326kts
19-Mar-16 17:42 33.260803 -117.765331 273 14639ft 318kts
19-Mar-16 17:43 33.281564 -117.870132 318 12971ft 317kts
19-Mar-16 17:44 33.356533 -117.897312 341 11574ft 317kts
19-Mar-16 17:45 33.441099 -117.929813 341 10344ft 293kts
19-Mar-16 17:46 33.523263 -117.959936 341 10003ft 291kts
19-Mar-16 17:47 33.594294 -117.985693 341 10000ft 291kts
19-Mar-16 17:48 33.674527 -118.014825 341 9999ft 257kts
19-Mar-16 17:49 33.731836 -118.035872 341 9989ft 256kts
19-Mar-16 17:50 33.801580 -118.063088 336 7846ft 219kts
19-Mar-16 17:51 33.849089 -118.088225 334 5800ft 193kts
19-Mar-16 17:52 33.899396 -118.117374 332 4831ft 182kts
19-Mar-16 17:53 33.939524 -118.142480 328 4072ft 178kts
19-Mar-16 17:54 33.956144 -118.202049 270 2282ft 172kts
19-Mar-16 17:55 33.949988 -118.251339 262 2289ft 143kts
19-Mar-16 17:56 33.945232 -118.304131 262 1562ft 151kts
19-Mar-16 17:57 33.940311 -118.353178 263 670ft 145kts
19-Mar-16 17:58 33.936136 -118.395069 261 140ft 86kts
19-Mar-16 17:59 33.936043 -118.403190 292 140ft 13kts
19-Mar-16 18:00 33.936015 -118.406714 264 140ft 13kts
19-Mar-16 18:01 33.937358 -118.409173 352 140ft 10kts
19-Mar-16 18:02 33.938515 -118.409440 315 140ft 13kts
19-Mar-16 18:03 33.940423 -118.412068 352 140ft 14kts
19-Mar-16 18:04 33.944693 -118.412699 352 140ft 17kts
19-Mar-16 18:05 33.947299 -118.410941 84 140ft 11kts
19-Mar-16 18:06 33.945420 -118.408936 152 140ft 6kts
19-Mar-16 18:07 33.945827 -118.407998 47 140ft 0kts
19-Mar-16 18:08 33.945828 -118.407996 47 140ft 0kts
19-Mar-16 18:09 33.945828 -118.407996 47 140ft 0kts
19-Mar-16 18:10 33.945828 -118.407996 47 140ft 0kts
19-Mar-16 18:11 33.945828 -118.407996 47 140ft 0kts
19-Mar-16 18:12 33.945828 -118.407996 47 140ft 0kts
19-Mar-16 18:13 33.945828 -118.407996 47 140ft 0kts

Navigation Log

Ident Type
Flight plan parsing failed, navigation log unavailable